Time;durP1;ratioP1;P1;durP2;ratioP2;P2;SDS_P1;SDS_P2;PMS_P1;PMS_P2;Temp;Humidity;BMP_temperature;BMP_pressure;BME280_temperature;BME280_humidity;BME280_pressure;Samples;Min_cycle;Max_cycle;Signal;HPM_P1;HPM_P2
2023/03/14 00:02:02;;;;;;;5.45;0.80;;;;;;;3.53;100.00;98350.44;4954861;28;20115;-81
2023/03/14 00:04:30;;;;;;;8.23;1.15;;;;;;;3.58;100.00;98360.44;4934317;28;20114;-81
2023/03/14 00:07:00;;;;;;;6.72;0.60;;;;;;;3.61;100.00;98375.81;4906098;29;20118;-81
2023/03/14 00:09:30;;;;;;;3.30;0.70;;;;;;;3.65;100.00;98376.31;4947657;28;20043;-82
2023/03/14 00:11:59;;;;;;;7.38;1.70;;;;;;;3.70;100.00;98374.06;4915781;28;20047;-81
2023/03/14 00:14:27;;;;;;;5.95;0.85;;;;;;;3.72;100.00;98366.91;4935227;29;20035;-81
2023/03/14 00:16:57;;;;;;;4.53;0.60;;;;;;;3.73;100.00;98365.94;4936691;28;20091;-81
2023/03/14 00:19:27;;;;;;;3.05;0.68;;;;;;;3.72;100.00;98377.34;4912522;28;20121;-81
2023/03/14 00:21:56;;;;;;;8.18;0.85;;;;;;;3.74;100.00;98370.19;4956829;28;20070;-81
2023/03/14 00:24:25;;;;;;;11.68;1.23;;;;;;;3.74;100.00;98374.59;4905684;28;20035;-81
2023/03/14 00:26:53;;;;;;;6.45;0.75;;;;;;;3.69;100.00;98370.66;4917530;28;20035;-81
2023/03/14 00:29:25;;;;;;;9.77;1.20;;;;;;;3.67;100.00;98377.81;4937261;28;20053;-81
2023/03/14 00:31:55;;;;;;;16.08;0.95;;;;;;;3.68;100.00;98384.66;4950988;28;20055;-81
2023/03/14 00:34:28;;;;;;;9.50;0.77;;;;;;;3.67;100.00;98388.25;4925689;28;20581;-81
2023/03/14 00:36:56;;;;;;;7.47;1.05;;;;;;;3.70;100.00;98392.34;4951082;28;20022;-81
2023/03/14 00:39:25;;;;;;;4.60;0.95;;;;;;;3.70;100.00;98403.63;4940420;28;20032;-81
2023/03/14 00:41:53;;;;;;;13.43;1.05;;;;;;;3.67;100.00;98405.72;4924639;29;20035;-81
2023/03/14 00:44:20;;;;;;;5.20;1.10;;;;;;;3.69;100.00;98401.19;4955400;28;20039;-81
2023/03/14 00:46:48;;;;;;;6.20;0.93;;;;;;;3.70;100.00;98401.03;4954278;28;20491;-81
2023/03/14 00:49:19;;;;;;;8.43;0.80;;;;;;;3.68;100.00;98407.38;4941218;28;20055;-81
2023/03/14 00:51:51;;;;;;;8.27;1.45;;;;;;;3.59;100.00;98415.13;4925209;28;20035;-81
2023/03/14 00:54:20;;;;;;;7.10;1.15;;;;;;;3.55;100.00;98415.59;4971803;28;20035;-81
2023/03/14 00:56:48;;;;;;;6.82;0.77;;;;;;;3.47;100.00;98432.00;4945218;28;20027;-81
2023/03/14 00:59:17;;;;;;;8.73;0.90;;;;;;;3.41;100.00;98435.22;4935164;28;20031;-81
2023/03/14 01:01:45;;;;;;;4.65;0.65;;;;;;;3.38;100.00;98449.38;4942600;28;20082;-81
2023/03/14 01:04:13;;;;;;;4.32;1.30;;;;;;;3.33;100.00;98447.19;4950622;28;20034;-81
2023/03/14 01:06:41;;;;;;;6.13;0.80;;;;;;;3.33;100.00;98455.03;4949266;28;20047;-81
2023/03/14 01:09:11;;;;;;;10.25;1.38;;;;;;;3.29;100.00;98455.47;4952421;28;20031;-81
2023/03/14 01:11:42;;;;;;;5.35;1.00;;;;;;;3.29;100.00;98465.94;4973288;28;20030;-81
2023/03/14 01:14:10;;;;;;;7.80;0.80;;;;;;;3.25;100.00;98462.78;4974832;28;20041;-81
2023/03/14 01:16:38;;;;;;;6.75;0.95;;;;;;;3.20;100.00;98475.47;4951546;28;20360;-81
2023/03/14 01:19:07;;;;;;;7.15;1.10;;;;;;;3.18;100.00;98475.63;4926274;28;20034;-83
2023/03/14 01:21:36;;;;;;;10.52;1.13;;;;;;;3.16;100.00;98482.75;4968878;28;20535;-81
2023/03/14 01:24:06;;;;;;;6.72;0.82;;;;;;;3.15;100.00;98488.13;4939756;28;20034;-81
2023/03/14 01:26:35;;;;;;;6.75;1.48;;;;;;;3.13;100.00;98495.28;4960427;28;20042;-81
2023/03/14 01:29:07;;;;;;;9.10;1.60;;;;;;;3.10;100.00;98497.22;4960591;28;20041;-81
2023/03/14 01:31:39;;;;;;;10.05;1.13;;;;;;;3.08;100.00;98500.94;4937940;28;20034;-81
2023/03/14 01:34:10;;;;;;;5.32;0.70;;;;;;;3.05;100.00;98504.66;4940152;28;20034;-81
2023/03/14 01:36:40;;;;;;;6.47;0.68;;;;;;;3.04;100.00;98504.81;4937808;28;20031;-81
2023/03/14 01:39:09;;;;;;;8.60;1.42;;;;;;;3.01;100.00;98516.34;4958693;28;20046;-81
2023/03/14 01:41:37;;;;;;;6.95;0.98;;;;;;;3.02;100.00;98527.59;4972530;28;20038;-81
2023/03/14 01:44:11;;;;;;;8.77;1.23;;;;;;;3.03;100.00;98531.84;4943915;28;20372;-81
2023/03/14 01:46:39;;;;;;;7.85;1.15;;;;;;;3.00;100.00;98538.19;4957928;28;20455;-81
2023/03/14 01:49:26;;;;;;;5.60;0.73;;;;;;;3.05;100.00;98556.03;4950102;28;20066;-81
2023/03/14 01:52:31;;;;;;;6.53;1.13;;;;;;;3.05;100.00;98574.31;4947619;28;20561;-81
2023/03/14 01:55:13;;;;;;;4.90;0.98;;;;;;;3.11;100.00;98581.56;4941249;29;20034;-81
2023/03/14 01:57:51;;;;;;;7.88;0.70;;;;;;;3.10;100.00;98578.16;4930072;28;20535;-81
2023/03/14 02:00:23;;;;;;;5.00;0.70;;;;;;;3.12;100.00;98591.06;4954236;28;20039;-81
2023/03/14 02:03:10;;;;;;;11.93;1.10;;;;;;;3.09;100.00;98601.78;4967274;28;20125;-81
2023/03/14 02:05:41;;;;;;;6.43;1.00;;;;;;;3.12;100.00;98611.13;4951076;28;20042;-81
2023/03/14 02:08:17;;;;;;;3.50;0.50;;;;;;;3.10;100.00;98613.88;4952605;28;20050;-81
2023/03/14 02:10:52;;;;;;;4.38;0.82;;;;;;;3.10;100.00;98619.91;4969748;28;20030;-80
2023/03/14 02:13:35;;;;;;;1.23;0.32;;;;;;;3.03;100.00;98631.88;4964692;28;20050;-81
2023/03/14 02:16:25;;;;;;;6.80;1.00;;;;;;;3.07;100.00;98645.47;4946872;28;20027;-81
2023/03/14 02:19:07;;;;;;;9.20;0.90;;;;;;;3.04;100.00;98657.00;4951172;28;20045;-81
2023/03/14 02:22:07;;;;;;;7.45;0.70;;;;;;;2.96;100.00;98664.72;4952011;28;20053;-82
2023/03/14 02:25:21;;;;;;;3.28;0.60;;;;;;;2.90;100.00;98680.94;4938565;28;20038;-81
2023/03/14 02:27:51;;;;;;;3.28;0.73;;;;;;;2.83;100.00;98691.94;4926914;29;20724;-81
2023/03/14 02:30:24;;;;;;;3.33;0.90;;;;;;;2.82;100.00;98713.75;4920561;28;20039;-81
2023/03/14 02:33:00;;;;;;;3.40;0.73;;;;;;;2.82;100.00;98726.00;4941656;28;20037;-81
2023/03/14 02:35:58;;;;;;;2.70;0.77;;;;;;;2.82;100.00;98739.84;4953194;28;20056;-81
2023/03/14 02:38:41;;;;;;;1.88;0.50;;;;;;;2.69;100.00;98745.31;4931431;28;20392;-81
2023/03/14 02:41:09;;;;;;;0.45;0.30;;;;;;;2.58;100.00;98754.09;4934453;29;20090;-81
2023/03/14 02:43:44;;;;;;;1.30;0.40;;;;;;;2.52;100.00;98782.50;4950179;28;20031;-81
2023/03/14 02:46:16;;;;;;;0.57;0.30;;;;;;;2.39;100.00;98788.78;4915257;28;20038;-81
2023/03/14 02:49:02;;;;;;;0.45;0.30;;;;;;;2.33;100.00;98794.53;4921886;29;20047;-81
2023/03/14 02:51:36;;;;;;;0.10;0.10;;;;;;;2.29;100.00;98801.81;4906301;29;20039;-81
2023/03/14 02:54:08;;;;;;;3.50;0.30;;;;;;;2.26;100.00;98832.53;4910770;29;20046;-83
2023/03/14 02:56:38;;;;;;;0.47;0.17;;;;;;;2.14;100.00;98829.16;4932786;29;20034;-81
2023/03/14 02:59:08;;;;;;;0.88;0.30;;;;;;;2.14;100.00;98839.59;4901153;29;20035;-81
2023/03/14 03:01:42;;;;;;;1.50;0.20;;;;;;;2.14;100.00;98835.22;4912858;28;20103;-81
2023/03/14 03:04:11;;;;;;;0.57;0.20;;;;;;;2.19;100.00;98833.03;4911129;29;20436;-81
2023/03/14 03:06:39;;;;;;;1.45;0.30;;;;;;;2.10;100.00;98842.44;4941590;29;20532;-80
2023/03/14 03:09:07;;;;;;;2.63;0.22;;;;;;;2.10;100.00;98858.09;4927634;29;20055;-80
2023/03/14 03:11:35;;;;;;;1.25;0.40;;;;;;;2.03;100.00;98885.63;4920793;29;20028;-81
2023/03/14 03:14:04;;;;;;;0.28;0.10;;;;;;;2.01;100.00;98860.66;4930026;29;20070;-81
2023/03/14 03:16:33;;;;;;;2.38;0.55;;;;;;;2.06;100.00;98841.06;4914175;29;20126;-81
2023/03/14 03:19:00;;;;;;;2.67;0.35;;;;;;;2.05;100.00;98836.81;4940728;29;20413;-81
2023/03/14 03:21:28;;;;;;;5.22;0.40;;;;;;;2.11;100.00;98856.31;4926752;29;20083;-81
2023/03/14 03:23:56;;;;;;;3.92;0.47;;;;;;;2.08;100.00;98861.78;4917956;29;20032;-81
2023/03/14 03:26:23;;;;;;;3.67;0.40;;;;;;;2.14;100.00;98861.28;4911460;29;20576;-81
2023/03/14 03:28:52;;;;;;;2.85;0.32;;;;;;;2.10;100.00;98852.88;4917910;29;20050;-81
2023/03/14 03:31:20;;;;;;;1.63;0.30;;;;;;;2.15;100.00;98864.72;4929016;29;20102;-80
2023/03/14 03:33:48;;;;;;;0.80;0.30;;;;;;;2.17;100.00;98845.38;4924362;29;20472;-81
2023/03/14 03:36:22;;;;;;;1.17;0.40;;;;;;;2.21;100.00;98851.16;4951767;28;20075;-81
2023/03/14 03:38:50;;;;;;;1.98;0.80;;;;;;;2.12;100.00;98860.56;4929002;29;20039;-81
2023/03/14 03:41:18;;;;;;;5.88;0.90;;;;;;;2.28;100.00;98880.16;4928405;29;20483;-81
2023/03/14 03:43:48;;;;;;;3.88;0.70;;;;;;;2.34;100.00;98884.84;4939093;28;20057;-81
2023/03/14 03:46:17;;;;;;;3.13;0.82;;;;;;;2.40;100.00;98888.72;4923948;29;21218;-81
2023/03/14 03:48:45;;;;;;;1.13;0.32;;;;;;;2.42;100.00;98912.88;4924939;28;20345;-80
2023/03/14 03:51:17;;;;;;;1.27;0.63;;;;;;;2.43;100.00;98936.22;4920646;28;20037;-81
2023/03/14 03:53:46;;;;;;;1.08;0.40;;;;;;;2.54;100.00;98942.31;4949044;28;20387;-81
2023/03/14 03:56:18;;;;;;;1.13;0.40;;;;;;;2.58;100.00;98954.97;4954872;28;20027;-81
2023/03/14 03:58:47;;;;;;;1.67;0.30;;;;;;;2.62;100.00;98970.34;4918433;28;20041;-80
2023/03/14 04:01:15;;;;;;;2.10;0.40;;;;;;;2.56;100.00;98980.38;4924582;28;20039;-81
2023/03/14 04:03:47;;;;;;;4.13;1.33;;;;;;;2.55;100.00;98983.09;4938642;28;20097;-80
2023/03/14 04:06:15;;;;;;;2.60;0.50;;;;;;;2.46;100.00;99000.34;4931566;28;20082;-80
2023/03/14 04:08:45;;;;;;;1.00;0.30;;;;;;;2.32;100.00;99031.00;4937716;28;20050;-81
2023/03/14 04:11:48;;;;;;;3.53;0.30;;;;;;;2.15;100.00;99068.03;4939673;28;20110;-81
2023/03/14 04:14:22;;;;;;;1.98;0.20;;;;;;;1.91;100.00;99072.47;4968799;28;20092;-82
2023/03/14 04:17:02;;;;;;;0.47;0.45;;;;;;;1.84;100.00;99068.72;4952974;28;20026;-82
2023/03/14 04:19:30;;;;;;;0.52;0.20;;;;;;;1.77;100.00;99055.34;4948942;28;20535;-82
2023/03/14 04:21:58;;;;;;;0.68;0.20;;;;;;;1.75;100.00;99065.06;4960562;28;20118;-82
2023/03/14 04:24:31;;;;;;;1.95;0.20;;;;;;;1.71;100.00;99068.84;4944735;28;20034;-82
2023/03/14 04:27:01;;;;;;;0.85;0.28;;;;;;;1.72;100.00;99079.16;4943411;28;20036;-82
2023/03/14 04:29:31;;;;;;;0.80;0.30;;;;;;;1.70;100.00;99075.03;4960398;28;20031;-82
2023/03/14 04:32:01;;;;;;;0.47;0.10;;;;;;;1.68;100.00;99087.34;4919070;28;20117;-82
2023/03/14 04:34:31;;;;;;;0.57;0.15;;;;;;;1.67;100.00;99091.69;4922333;28;20538;-82
2023/03/14 04:37:01;;;;;;;0.20;0.20;;;;;;;1.67;100.00;99098.72;4922841;29;20042;-82
2023/03/14 04:39:38;;;;;;;0.45;0.17;;;;;;;1.65;100.00;99111.84;4950120;28;20069;-82
2023/03/14 04:42:16;;;;;;;1.27;0.15;;;;;;;1.64;100.00;99120.59;4949262;28;20468;-82
2023/03/14 04:44:46;;;;;;;0.10;0.10;;;;;;;1.68;100.00;99127.25;4967352;28;20522;-82
2023/03/14 04:47:16;;;;;;;0.43;0.20;;;;;;;1.66;100.00;99131.72;4942081;29;20031;-82
2023/03/14 04:49:46;;;;;;;0.10;0.10;;;;;;;1.66;100.00;99151.72;4931420;29;20555;-82
2023/03/14 04:52:15;;;;;;;0.60;0.20;;;;;;;1.69;100.00;99165.34;4942885;28;20093;-82
2023/03/14 04:54:44;;;;;;;0.75;0.10;;;;;;;1.68;100.00;99174.13;4881434;28;20038;-82
2023/03/14 04:57:11;;;;;;;0.65;0.10;;;;;;;1.63;100.00;99178.84;4954754;28;20024;-82
2023/03/14 04:59:39;;;;;;;0.93;0.20;;;;;;;1.59;100.00;99183.47;4973778;28;20031;-82
2023/03/14 05:02:38;;;;;;;0.20;0.10;;;;;;;1.50;100.00;99184.16;4945514;28;20031;-82
2023/03/14 05:05:26;;;;;;;0.52;0.45;;;;;;;1.45;100.00;99189.72;4959147;28;20371;-82
2023/03/14 05:08:17;;;;;;;2.78;0.30;;;;;;;1.43;100.00;99199.47;4923872;28;20097;-81
2023/03/14 05:10:58;;;;;;;1.17;0.25;;;;;;;1.40;100.00;99204.88;4933501;28;20035;-82
2023/03/14 05:13:41;;;;;;;2.47;0.30;;;;;;;1.36;100.00;99216.47;4939796;28;20495;-80
2023/03/14 05:16:18;;;;;;;1.23;0.30;;;;;;;1.30;100.00;99228.19;4970246;28;20037;-80
2023/03/14 05:19:16;;;;;;;1.48;0.20;;;;;;;1.34;100.00;99229.59;4948313;28;20471;-80
2023/03/14 05:22:04;;;;;;;1.65;0.20;;;;;;;1.34;100.00;99234.81;4967617;28;20806;-80
2023/03/14 05:24:36;;;;;;;1.05;0.38;;;;;;;1.41;100.00;99229.97;4961000;28;20034;-80
2023/03/14 05:27:26;;;;;;;3.05;0.40;;;;;;;1.44;100.00;99241.94;4936479;28;20051;-80
2023/03/14 05:30:03;;;;;;;2.57;0.30;;;;;;;1.45;100.00;99246.22;4971488;28;20451;-80
2023/03/14 05:32:45;;;;;;;2.25;0.35;;;;;;;1.42;100.00;99257.66;4946325;28;20478;-81
2023/03/14 05:35:42;;;;;;;;;;;;;;;1.41;100.00;99269.03;4930445;28;20067;-81
2023/03/14 05:38:38;;;;;;;1.65;0.30;;;;;;;1.38;100.00;99271.03;4934542;28;19961;-81
2023/03/14 05:41:29;;;;;;;2.17;0.40;;;;;;;1.42;100.00;99268.09;4927946;28;20035;-80
2023/03/14 05:44:15;;;;;;;0.43;0.35;;;;;;;1.41;100.00;99268.19;4971160;28;20053;-81
2023/03/14 05:46:58;;;;;;;1.58;0.40;;;;;;;1.45;100.00;99282.66;4962397;28;20039;-80
2023/03/14 05:49:32;;;;;;;2.10;0.52;;;;;;;1.40;100.00;99285.59;4968148;28;20050;-80
2023/03/14 05:52:30;;;;;;;2.75;0.82;;;;;;;1.41;100.00;99284.66;4919299;28;20124;-80
2023/03/14 05:55:33;;;;;;;2.50;0.70;;;;;;;1.39;100.00;99288.31;4898019;29;20109;-80
2023/03/14 05:58:22;;;;;;;5.78;1.10;;;;;;;1.36;100.00;99303.22;4934768;28;20074;-81
2023/03/14 06:01:13;;;;;;;1.95;0.60;;;;;;;1.29;100.00;99317.63;4936642;28;20428;-81
2023/03/14 06:04:01;;;;;;;1.67;0.50;;;;;;;1.28;100.00;99313.38;4947215;28;20038;-80
2023/03/14 06:06:29;;;;;;;3.10;1.58;;;;;;;1.23;100.00;99325.88;4941795;28;20042;-80
2023/03/14 06:09:01;;;;;;;5.55;0.80;;;;;;;1.27;100.00;99329.94;4938772;28;20042;-80
2023/03/14 06:11:34;;;;;;;1.33;0.40;;;;;;;1.21;100.00;99341.63;4964939;28;20046;-80
2023/03/14 06:14:05;;;;;;;9.35;6.35;;;;;;;1.17;100.00;99342.78;4945434;28;20026;-80
2023/03/14 06:16:33;;;;;;;5.32;0.90;;;;;;;1.10;100.00;99355.41;4944535;28;20104;-80
2023/03/14 06:19:01;;;;;;;4.82;0.45;;;;;;;1.00;100.00;99357.03;4932111;28;20042;-80
2023/03/14 06:21:30;;;;;;;1.20;0.45;;;;;;;0.98;100.00;99366.69;4941953;28;20027;-80
2023/03/14 06:23:58;;;;;;;7.25;0.57;;;;;;;0.98;100.00;99374.50;4931645;28;20130;-80
2023/03/14 06:26:30;;;;;;;3.72;0.45;;;;;;;0.97;100.00;99368.47;4930104;28;20030;-80
2023/03/14 06:29:02;;;;;;;2.88;0.75;;;;;;;0.98;100.00;99379.72;4931610;29;20031;-80
2023/03/14 06:31:33;;;;;;;3.92;1.70;;;;;;;0.99;100.00;99382.19;4965258;28;20023;-80
2023/03/14 06:34:05;;;;;;;5.15;2.25;;;;;;;1.01;100.00;99383.84;4931209;28;20382;-80
2023/03/14 06:36:33;;;;;;;1.25;0.30;;;;;;;0.97;100.00;99391.88;4920958;28;20034;-81
2023/03/14 06:39:01;;;;;;;1.95;1.55;;;;;;;0.96;100.00;99399.78;4970128;28;20482;-80
2023/03/14 06:41:32;;;;;;;6.45;1.42;;;;;;;0.94;100.00;99409.50;4966426;28;20118;-80
2023/03/14 06:44:00;;;;;;;4.22;0.60;;;;;;;0.95;100.00;99408.56;4962222;28;20030;-80
2023/03/14 06:46:29;;;;;;;2.90;0.50;;;;;;;0.97;100.00;99414.50;4944970;28;20039;-80
2023/03/14 06:48:56;;;;;;;4.40;0.57;;;;;;;0.94;100.00;99418.13;4932482;29;20099;-80
2023/03/14 06:51:24;;;;;;;4.25;0.77;;;;;;;0.93;100.00;99439.03;4931177;28;20031;-80
2023/03/14 06:53:53;;;;;;;3.25;0.50;;;;;;;0.93;100.00;99442.47;4946809;28;20118;-81
2023/03/14 06:56:24;;;;;;;3.03;2.08;;;;;;;0.81;100.00;99444.16;4934203;28;20023;-80
2023/03/14 06:58:55;;;;;;;2.95;0.93;;;;;;;0.80;100.00;99450.31;4932029;29;20371;-80
2023/03/14 07:01:28;;;;;;;3.38;0.52;;;;;;;0.80;100.00;99452.91;4944720;28;20479;-80
2023/03/14 07:04:04;;;;;;;10.43;5.55;;;;;;;0.82;100.00;99461.44;4942961;28;20114;-80
2023/03/14 07:06:34;;;;;;;2.40;0.80;;;;;;;0.90;100.00;99479.13;4939132;28;20617;-80
2023/03/14 07:09:04;;;;;;;6.40;0.90;;;;;;;1.04;100.00;99480.75;4951546;28;20130;-79
2023/03/14 07:11:36;;;;;;;1.65;0.52;;;;;;;1.17;100.00;99480.75;4946148;28;20035;-80
2023/03/14 07:14:06;;;;;;;3.10;0.68;;;;;;;1.25;100.00;99493.22;4925401;28;20035;-80
2023/03/14 07:16:35;;;;;;;4.30;0.70;;;;;;;1.38;100.00;99498.41;4942895;29;20421;-80
2023/03/14 07:19:03;;;;;;;6.78;1.20;;;;;;;1.52;100.00;99502.63;4944974;28;20022;-80
2023/03/14 07:21:34;;;;;;;5.03;0.60;;;;;;;1.67;100.00;99512.91;4926300;28;20577;-80
2023/03/14 07:24:07;;;;;;;2.30;0.45;;;;;;;1.72;100.00;99522.03;4925045;28;20443;-80
2023/03/14 07:26:35;;;;;;;2.17;0.60;;;;;;;1.65;100.00;99522.59;4954018;28;20097;-80
2023/03/14 07:29:05;;;;;;;8.10;1.20;;;;;;;1.57;100.00;99523.97;4949248;28;20153;-80
2023/03/14 07:31:35;;;;;;;4.82;0.50;;;;;;;1.47;100.00;99533.38;4936759;28;20037;-80
2023/03/14 07:34:07;;;;;;;3.88;1.63;;;;;;;1.43;100.00;99540.59;4934056;28;20062;-80
2023/03/14 07:36:40;;;;;;;6.95;0.65;;;;;;;1.38;100.00;99553.09;4916455;29;20029;-80
2023/03/14 07:39:08;;;;;;;3.63;1.40;;;;;;;1.34;100.00;99554.22;4945549;28;20051;-80
2023/03/14 07:41:35;;;;;;;2.60;0.80;;;;;;;1.37;100.00;99564.41;4962445;28;20577;-80
2023/03/14 07:44:22;;;;;;;7.53;0.93;;;;;;;1.35;100.00;99572.34;4934932;28;20475;-80
2023/03/14 07:46:51;;;;;;;4.68;0.60;;;;;;;1.37;100.00;99567.03;4934859;28;20145;-81
2023/03/14 07:49:19;;;;;;;4.10;0.80;;;;;;;1.41;100.00;99580.66;4964358;28;20506;-80
2023/03/14 07:51:50;;;;;;;1.38;0.70;;;;;;;1.45;100.00;99587.34;4953558;28;20038;-80
2023/03/14 07:54:18;;;;;;;2.85;0.65;;;;;;;1.44;100.00;99588.28;4921923;28;20831;-80
2023/03/14 07:56:45;;;;;;;4.55;0.98;;;;;;;1.49;100.00;99594.00;4932520;28;20640;-80
2023/03/14 07:59:13;;;;;;;3.83;0.93;;;;;;;1.49;100.00;99599.22;4949083;28;20059;-80
2023/03/14 08:01:41;;;;;;;6.38;0.80;;;;;;;1.52;100.00;99596.38;4935503;28;20050;-80
2023/03/14 08:04:09;;;;;;;2.17;0.50;;;;;;;1.54;100.00;99604.94;4961922;28;20455;-80
2023/03/14 08:06:38;;;;;;;4.22;1.23;;;;;;;1.60;100.00;99606.28;4937536;28;20479;-77
2023/03/14 08:09:06;;;;;;;4.45;0.82;;;;;;;1.63;100.00;99615.63;4959017;28;20375;-77
2023/03/14 08:11:34;;;;;;;7.65;1.67;;;;;;;1.72;100.00;99623.66;4931349;28;20030;-80
2023/03/14 08:14:02;;;;;;;8.20;1.20;;;;;;;1.77;100.00;99617.31;4967934;28;20105;-80
2023/03/14 08:16:31;;;;;;;7.53;0.80;;;;;;;1.82;100.00;99628.22;4950495;28;20586;-80
2023/03/14 08:18:59;;;;;;;4.32;0.70;;;;;;;1.85;100.00;99628.84;4944737;28;20105;-80
2023/03/14 08:21:29;;;;;;;7.93;0.85;;;;;;;1.96;100.00;99633.28;4960768;28;20546;-77
2023/03/14 08:23:59;;;;;;;9.85;1.00;;;;;;;2.03;100.00;99632.84;4951825;28;20475;-77
2023/03/14 08:26:28;;;;;;;5.15;1.00;;;;;;;2.13;100.00;99644.31;4933782;28;20043;-80
2023/03/14 08:28:58;;;;;;;5.07;0.90;;;;;;;2.22;100.00;99640.19;4949942;28;20374;-80
2023/03/14 08:31:27;;;;;;;5.32;1.40;;;;;;;2.25;100.00;99644.34;4943041;28;20039;-81
2023/03/14 08:33:55;;;;;;;5.53;1.08;;;;;;;2.29;100.00;99644.03;4973017;28;20097;-81
2023/03/14 08:36:23;;;;;;;7.40;0.90;;;;;;;2.39;100.00;99648.59;4953969;28;20093;-81
2023/03/14 08:38:51;;;;;;;13.32;1.95;;;;;;;2.48;100.00;99642.69;4949842;28;20039;-80
2023/03/14 08:41:20;;;;;;;8.52;1.42;;;;;;;2.66;100.00;99652.75;4934255;29;20113;-80
2023/03/14 08:43:47;;;;;;;6.40;2.15;;;;;;;2.82;100.00;99660.28;4952811;28;20582;-80
2023/03/14 08:46:15;;;;;;;4.68;1.20;;;;;;;2.99;100.00;99659.00;4946417;28;20027;-80
2023/03/14 08:48:43;;;;;;;12.63;1.70;;;;;;;3.10;100.00;99659.03;4948170;28;20408;-81
2023/03/14 08:51:15;;;;;;;5.38;1.83;;;;;;;3.17;100.00;99666.41;4901149;29;20028;-80
2023/03/14 08:53:45;;;;;;;9.02;3.25;;;;;;;3.23;100.00;99673.78;4934237;29;20047;-81
2023/03/14 08:56:13;;;;;;;6.90;3.47;;;;;;;3.29;100.00;99672.47;4948563;29;20132;-80
2023/03/14 08:58:41;;;;;;;8.00;1.88;;;;;;;3.32;100.00;99673.09;4955258;28;20372;-80
2023/03/14 09:01:10;;;;;;;7.13;2.22;;;;;;;3.41;100.00;99673.34;4931884;29;20119;-80
2023/03/14 09:03:38;;;;;;;6.03;2.28;;;;;;;3.47;100.00;99665.03;4917569;29;20092;-81
2023/03/14 09:06:10;;;;;;;13.15;4.65;;;;;;;3.57;100.00;99665.97;4913952;29;20039;-80
2023/03/14 09:08:38;;;;;;;11.13;3.33;;;;;;;3.66;100.00;99672.28;4932672;29;20032;-80
2023/03/14 09:11:08;;;;;;;7.03;1.75;;;;;;;3.78;100.00;99662.66;4924940;29;20122;-80
2023/03/14 09:13:36;;;;;;;8.77;1.50;;;;;;;3.79;100.00;99666.09;4924973;29;20382;-80
2023/03/14 09:16:05;;;;;;;7.07;2.03;;;;;;;3.84;100.00;99666.56;4944910;29;20072;-80
2023/03/14 09:18:32;;;;;;;7.18;1.83;;;;;;;3.89;100.00;99674.03;4932814;29;20047;-79
2023/03/14 09:21:02;;;;;;;9.40;1.27;;;;;;;3.97;100.00;99676.91;4930874;29;20047;-80
2023/03/14 09:23:29;;;;;;;9.23;1.83;;;;;;;4.04;100.00;99683.31;4922710;28;20035;-80
2023/03/14 09:25:59;;;;;;;6.30;1.20;;;;;;;4.07;100.00;99677.00;4930965;29;20035;-79
2023/03/14 09:28:27;;;;;;;8.88;2.33;;;;;;;4.13;100.00;99686.13;4926047;29;21080;-79
2023/03/14 09:30:57;;;;;;;8.07;1.42;;;;;;;4.20;100.00;99697.78;4914025;29;20031;-79
2023/03/14 09:33:27;;;;;;;9.48;1.77;;;;;;;4.31;100.00;99695.16;4945073;28;20038;-80
2023/03/14 09:35:59;;;;;;;8.05;2.38;;;;;;;4.42;100.00;99696.09;4939142;28;20092;-80
2023/03/14 09:38:27;;;;;;;8.20;1.38;;;;;;;4.40;100.00;99703.22;4945549;28;20040;-79
2023/03/14 09:40:58;;;;;;;5.90;1.42;;;;;;;4.45;100.00;99707.16;4939068;29;20027;-79
2023/03/14 09:43:30;;;;;;;4.10;1.35;;;;;;;4.52;100.00;99704.88;4931744;29;20043;-80
2023/03/14 09:46:02;;;;;;;9.90;1.30;;;;;;;4.55;100.00;99717.72;4917981;29;20118;-80
2023/03/14 09:48:34;;;;;;;4.10;1.00;;;;;;;4.64;100.00;99723.97;4943291;28;20055;-79
2023/03/14 09:51:12;;;;;;;8.80;1.45;;;;;;;4.71;100.00;99722.50;4956423;28;20074;-79
2023/03/14 09:53:47;;;;;;;5.78;1.10;;;;;;;4.81;100.00;99727.03;4959322;28;20126;-79
2023/03/14 09:56:21;;;;;;;7.15;1.30;;;;;;;4.94;100.00;99725.06;4932741;28;20110;-80
2023/03/14 09:59:00;;;;;;;7.35;1.60;;;;;;;4.97;100.00;99726.59;4946882;28;20043;-80
2023/03/14 10:01:30;;;;;;;5.75;1.13;;;;;;;5.08;100.00;99728.34;4949081;28;20041;-79
2023/03/14 10:04:13;;;;;;;3.00;0.93;;;;;;;5.22;100.00;99733.25;4963978;28;20046;-79
2023/03/14 10:06:43;;;;;;;3.50;0.50;;;;;;;5.31;100.00;99734.31;4964171;28;20074;-79
2023/03/14 10:09:27;;;;;;;4.05;0.82;;;;;;;5.33;100.00;99729.78;4953106;28;20561;-80
2023/03/14 10:11:59;;;;;;;7.57;1.60;;;;;;;5.28;100.00;99726.69;4949020;28;20039;-80
2023/03/14 10:14:36;;;;;;;4.88;0.70;;;;;;;5.25;100.00;99733.97;4963707;28;20053;-79
2023/03/14 10:17:12;;;;;;;2.88;0.35;;;;;;;5.12;100.00;99735.00;4953562;28;20039;-80
2023/03/14 10:19:54;;;;;;;2.05;0.35;;;;;;;5.08;100.00;99744.88;4925225;28;20398;-80
2023/03/14 10:22:29;;;;;;;2.25;0.40;;;;;;;5.06;100.00;99743.34;4955664;28;20062;-79
2023/03/14 10:25:07;;;;;;;3.27;0.77;;;;;;;4.99;100.00;99747.41;4944779;28;20407;-80
2023/03/14 10:27:37;;;;;;;5.13;0.70;;;;;;;4.99;100.00;99745.63;4931489;28;20541;-80
2023/03/14 10:30:26;;;;;;;4.05;0.70;;;;;;;4.98;100.00;99754.47;4949133;28;20031;-79
2023/03/14 10:32:54;;;;;;;3.95;1.98;;;;;;;5.07;100.00;99756.31;4939005;28;20129;-80
2023/03/14 10:35:23;;;;;;;3.40;1.00;;;;;;;5.30;100.00;99755.41;4943788;28;20043;-79
2023/03/14 10:37:54;;;;;;;2.28;0.32;;;;;;;5.43;100.00;99765.69;4944748;28;20050;-79
2023/03/14 10:40:29;;;;;;;3.72;0.60;;;;;;;5.62;100.00;99756.28;4960531;28;20082;-80
2023/03/14 10:43:00;;;;;;;2.97;0.43;;;;;;;5.83;100.00;99753.63;4965582;28;20065;-79
2023/03/14 10:45:30;;;;;;;2.15;0.40;;;;;;;5.99;100.00;99750.53;4949206;28;20129;-80
2023/03/14 10:48:20;;;;;;;0.80;0.70;;;;;;;6.13;100.00;99753.78;4960479;28;20034;-79
2023/03/14 10:50:57;;;;;;;2.83;0.40;;;;;;;6.22;100.00;99760.03;4961310;28;20055;-80
2023/03/14 10:53:26;;;;;;;1.42;0.20;;;;;;;6.25;100.00;99757.97;4960979;28;20415;-79
2023/03/14 10:55:57;;;;;;;3.58;0.70;;;;;;;6.31;100.00;99746.94;4946103;28;20502;-80
2023/03/14 10:58:28;;;;;;;2.65;0.40;;;;;;;6.40;100.00;99760.22;4954397;28;20383;-79
2023/03/14 11:01:02;;;;;;;2.83;0.55;;;;;;;6.50;100.00;99750.56;4952673;28;20054;-79
2023/03/14 11:03:35;;;;;;;3.67;0.52;;;;;;;6.46;100.00;99757.06;4959121;28;20549;-80
2023/03/14 11:06:09;;;;;;;2.43;0.50;;;;;;;6.41;100.00;99767.97;4949517;28;20110;-79
2023/03/14 11:09:07;;;;;;;3.08;0.60;;;;;;;6.28;100.00;99757.72;4936236;28;20438;-80
2023/03/14 11:11:41;;;;;;;2.42;0.60;;;;;;;6.14;100.00;99769.41;4970140;28;20058;-80
2023/03/14 11:14:25;;;;;;;3.60;0.50;;;;;;;6.24;100.00;99764.19;4971031;28;20074;-79
2023/03/14 11:17:03;;;;;;;4.65;0.52;;;;;;;6.33;100.00;99773.06;4964427;28;20027;-79
2023/03/14 11:19:59;;;;;;;4.43;0.50;;;;;;;6.38;100.00;99772.66;4933571;28;20031;-80
2023/03/14 11:22:55;;;;;;;3.92;0.98;;;;;;;6.39;100.00;99779.56;4929810;28;20086;-79
2023/03/14 11:25:33;;;;;;;1.85;0.65;;;;;;;6.29;100.00;99787.41;4947003;28;20042;-79
2023/03/14 11:28:32;;;;;;;5.05;0.40;;;;;;;6.22;100.00;99792.34;4952806;28;20117;-79
2023/03/14 11:31:15;;;;;;;6.25;0.75;;;;;;;6.23;100.00;99793.19;4956873;28;20403;-80
2023/03/14 11:34:09;;;;;;;2.88;1.30;;;;;;;6.18;100.00;99796.22;4953816;28;20041;-80
2023/03/14 11:36:47;;;;;;;4.45;1.50;;;;;;;6.17;100.00;99784.88;4928798;28;20050;-80
2023/03/14 11:39:19;;;;;;;5.25;0.85;;;;;;;6.22;100.00;99788.91;4933344;28;20487;-79
2023/03/14 11:41:52;;;;;;;5.55;3.05;;;;;;;6.22;100.00;99786.28;4936893;28;20074;-80
2023/03/14 11:44:26;;;;;;;5.32;0.75;;;;;;;6.34;100.00;99793.06;4942042;28;20059;-80
2023/03/14 11:47:07;;;;;;;2.85;0.40;;;;;;;6.54;100.00;99785.28;4965826;28;20058;-80
2023/03/14 11:49:43;;;;;;;2.83;0.70;;;;;;;6.60;100.00;99781.28;4955978;28;20051;-80
2023/03/14 11:52:22;;;;;;;0.75;0.20;;;;;;;6.50;100.00;99781.28;4930397;29;20437;-80
2023/03/14 11:55:08;;;;;;;3.58;0.60;;;;;;;6.40;100.00;99774.16;4919536;29;20077;-80
2023/03/14 11:57:38;;;;;;;;;;;;;;;6.33;100.00;99767.81;4931829;28;20118;-79
2023/03/14 12:00:19;;;;;;;2.70;1.02;;;;;;;6.35;100.00;99788.66;4953072;28;19954;-80
2023/03/14 12:02:58;;;;;;;2.05;0.57;;;;;;;6.33;100.00;99799.31;4873714;28;20906;-80
2023/03/14 12:05:32;;;;;;;3.42;1.00;;;;;;;6.22;100.00;99802.84;4927512;28;20039;-80